createdAt,value
2023-02-09T00:08:07.835Z,35.66
2023-02-09T00:08:49.929Z,96.76
2023-02-09T00:09:35.681Z,45.13
2023-02-09T00:10:22.175Z,45.13
2023-02-09T00:11:07.763Z,45.13
2023-02-09T00:11:52.269Z,45.13
2023-02-09T00:12:36.571Z,45.13
2023-02-09T00:13:21.768Z,45.13
2023-02-09T00:14:09.404Z,45.13
2023-02-09T00:14:56.668Z,45.13
2023-02-09T00:15:40.529Z,45.13
2023-02-09T00:16:22.353Z,45.13
2023-02-09T00:17:08.030Z,45.13
2023-02-09T00:17:55.406Z,45.13
2023-02-09T00:18:39.656Z,45.13
2023-02-09T00:19:24.084Z,45.13
2023-02-09T00:20:10.293Z,45.13
2023-02-09T00:20:54.883Z,45.13
2023-02-09T00:21:39.096Z,45.13
2023-02-09T00:22:25.636Z,45.13
2023-02-09T00:23:10.289Z,45.13
2023-02-09T00:23:52.946Z,45.13
2023-02-09T00:24:36.737Z,45.13
2023-02-09T00:25:23.715Z,45.13
2023-02-09T00:26:08.997Z,45.13
2023-02-09T00:26:53.515Z,45.13
2023-02-09T00:27:37.961Z,45.13
2023-02-09T00:28:24.598Z,45.13
2023-02-09T00:29:10.665Z,45.13
2023-02-09T00:29:54.355Z,45.13
2023-02-09T00:30:37.566Z,45.13
2023-02-09T00:31:23.293Z,45.13
2023-02-09T00:32:07.796Z,45.13
2023-02-09T00:32:52.198Z,45.13
2023-02-09T00:33:37.293Z,45.13
2023-02-09T00:34:22.901Z,45.13
2023-02-09T00:35:07.575Z,45.13
2023-02-09T00:35:53.958Z,45.13
2023-02-09T00:36:40.320Z,45.13
2023-02-09T00:37:24.734Z,45.13
2023-02-09T00:38:11.440Z,45.13
2023-02-09T00:38:54.903Z,45.13
2023-02-09T00:39:41.395Z,45.13
2023-02-09T00:40:28.838Z,45.13
2023-02-09T00:41:13.840Z,45.13
2023-02-09T00:41:58.604Z,45.13
2023-02-09T00:42:43.851Z,45.13
2023-02-09T00:43:28.757Z,45.13
2023-02-09T00:44:13.572Z,45.13
2023-02-09T00:44:58.957Z,45.13
2023-02-09T00:45:43.985Z,45.13
2023-02-09T00:46:29.069Z,45.13
2023-02-09T00:47:14.148Z,45.13
2023-02-09T00:47:59.004Z,45.13
2023-02-09T00:48:43.740Z,45.13
2023-02-09T00:49:29.010Z,45.13
2023-02-09T00:50:14.350Z,45.13
2023-02-09T00:50:59.324Z,45.13
2023-02-09T00:51:44.683Z,45.13
2023-02-09T00:52:29.738Z,45.13
2023-02-09T00:53:14.297Z,45.13
2023-02-09T00:53:59.272Z,45.13
2023-02-09T00:54:44.708Z,45.13
2023-02-09T00:55:29.340Z,45.13
2023-02-09T00:56:14.820Z,45.13
2023-02-09T00:57:00.046Z,45.13
2023-02-09T00:57:44.748Z,45.13
2023-02-09T00:58:29.426Z,45.13
2023-02-09T00:59:14.517Z,45.13
2023-02-09T00:59:59.679Z,45.13
2023-02-09T01:00:45.096Z,45.13
2023-02-09T01:01:29.405Z,45.13
2023-02-09T01:02:14.996Z,45.13
2023-02-09T01:02:59.765Z,45.13
2023-02-09T01:03:44.797Z,45.13
2023-02-09T01:04:30.396Z,45.13
2023-02-09T01:05:15.006Z,45.13
2023-02-09T01:05:59.998Z,45.13
2023-02-09T01:06:45.223Z,45.13
2023-02-09T01:07:30.005Z,45.13
2023-02-09T01:08:14.988Z,45.13
2023-02-09T01:08:59.474Z,45.13
2023-02-09T01:09:42.824Z,45.13
2023-02-09T01:10:30.575Z,45.13
2023-02-09T01:11:15.953Z,45.13
2023-02-09T01:11:59.737Z,45.13
2023-02-09T01:12:45.555Z,45.13
2023-02-09T01:13:30.625Z,45.13
2023-02-09T01:14:15.422Z,45.13
2023-02-09T01:15:00.916Z,45.13
2023-02-09T01:15:45.799Z,45.13
2023-02-09T01:16:30.632Z,45.13
2023-02-09T01:17:15.577Z,45.13
2023-02-09T01:18:00.861Z,45.13
2023-02-09T01:18:45.707Z,45.13
2023-02-09T01:19:31.065Z,45.13
2023-02-09T01:20:15.948Z,45.13
2023-02-09T01:21:01.265Z,45.13
2023-02-09T01:21:44.548Z,45.13
2023-02-09T01:22:30.943Z,45.13
2023-02-09T01:23:14.681Z,45.13
2023-02-09T01:24:01.185Z,45.13
2023-02-09T01:24:46.007Z,45.13
2023-02-09T01:25:31.307Z,45.13
2023-02-09T01:26:16.468Z,45.13
2023-02-09T01:27:01.290Z,45.13
2023-02-09T01:27:46.147Z,45.13
2023-02-09T01:28:31.203Z,45.13
2023-02-09T01:29:16.436Z,45.13
2023-02-09T01:30:01.580Z,45.13
2023-02-09T01:30:46.871Z,45.13
2023-02-09T01:31:31.894Z,45.13
2023-02-09T01:32:16.938Z,45.13
2023-02-09T01:33:01.652Z,45.13
2023-02-09T01:33:46.678Z,45.13
2023-02-09T01:34:31.908Z,45.13
2023-02-09T01:35:15.144Z,45.13
2023-02-09T01:36:00.038Z,45.13
2023-02-09T01:36:46.833Z,45.13
2023-02-09T01:37:30.866Z,45.13
2023-02-09T01:38:16.976Z,45.13
2023-02-09T01:38:58.326Z,45.13
2023-02-09T01:39:41.781Z,45.13
2023-02-09T01:40:26.660Z,45.13
2023-02-09T01:41:11.908Z,45.13
2023-02-09T01:41:57.008Z,45.13
2023-02-09T01:42:41.844Z,45.13
2023-02-09T01:43:26.737Z,45.13
2023-02-09T01:44:11.762Z,45.13
2023-02-09T01:44:57.075Z,45.13
2023-02-09T01:45:41.698Z,45.13
2023-02-09T01:46:27.258Z,45.13
2023-02-09T01:47:12.196Z,45.13
2023-02-09T01:47:57.155Z,45.13
2023-02-09T01:48:42.846Z,45.13
2023-02-09T01:49:31.510Z,1.16
2023-02-09T01:50:12.756Z,1.16
2023-02-09T01:50:58.202Z,1.16
2023-02-09T01:51:42.291Z,1.16
2023-02-09T01:52:30.000Z,1.16
2023-02-09T01:53:12.293Z,1.16
2023-02-09T01:54:01.033Z,1.16
2023-02-09T01:54:44.297Z,27.95
2023-02-09T01:55:28.151Z,27.95
2023-02-09T01:56:16.704Z,27.95
2023-02-09T01:56:58.037Z,27.95
2023-02-09T01:57:43.458Z,27.95
2023-02-09T01:58:27.697Z,27.95
2023-02-09T01:59:13.092Z,27.95
2023-02-09T01:59:57.945Z,27.95
2023-02-09T02:00:43.242Z,27.95
2023-02-09T02:01:29.399Z,27.95
2023-02-09T02:02:13.088Z,27.95
2023-02-09T02:02:58.164Z,27.95
2023-02-09T02:03:43.062Z,27.95
2023-02-09T02:04:28.469Z,27.95
2023-02-09T02:05:17.799Z,27.95
2023-02-09T02:05:57.942Z,0.00
2023-02-09T02:06:47.438Z,0.00
2023-02-09T02:07:29.047Z,1.25
2023-02-09T02:08:16.689Z,1.25
2023-02-09T02:09:02.424Z,1.25
2023-02-09T02:09:45.626Z,0.00
2023-02-09T02:10:32.699Z,0.00
2023-02-09T02:11:20.353Z,0.00
2023-02-09T02:12:04.796Z,0.00
2023-02-09T02:12:49.134Z,0.00
2023-02-09T02:13:32.205Z,0.00
2023-02-09T02:14:19.536Z,0.00
2023-02-09T02:15:04.605Z,0.00
2023-02-09T02:15:49.808Z,0.00
2023-02-09T02:16:34.284Z,0.00
2023-02-09T02:17:19.564Z,0.00
2023-02-09T02:18:04.601Z,0.00
2023-02-09T02:18:49.586Z,0.00
2023-02-09T02:19:34.634Z,0.00
2023-02-09T02:20:20.427Z,0.00
2023-02-09T02:21:04.794Z,0.00
2023-02-09T02:21:50.105Z,0.00
2023-02-09T02:22:35.186Z,0.00
2023-02-09T02:23:20.132Z,0.00
2023-02-09T02:24:04.993Z,0.00
2023-02-09T02:24:50.789Z,0.00
2023-02-09T02:25:35.153Z,0.00
2023-02-09T02:26:20.494Z,0.00
2023-02-09T02:27:05.580Z,0.00
2023-02-09T02:27:50.576Z,0.00
2023-02-09T02:28:35.563Z,0.00
2023-02-09T02:29:27.522Z,0.00
2023-02-09T02:30:01.823Z,0.00
2023-02-09T02:30:45.147Z,0.00
2023-02-09T02:31:33.260Z,0.00
2023-02-09T02:32:20.740Z,0.00
2023-02-09T02:33:04.280Z,0.00
2023-02-09T02:33:49.098Z,0.00
2023-02-09T02:34:32.972Z,0.00
2023-02-09T02:35:21.661Z,0.00
2023-02-09T02:36:06.188Z,0.00
2023-02-09T02:36:51.252Z,0.00
2023-02-09T02:37:36.299Z,0.00
2023-02-09T02:38:21.314Z,0.00
2023-02-09T02:39:06.515Z,0.00
2023-02-09T02:39:51.338Z,0.00
2023-02-09T02:40:36.519Z,0.00
2023-02-09T02:41:21.547Z,0.00
2023-02-09T02:42:06.459Z,0.00
2023-02-09T02:42:51.790Z,0.00
2023-02-09T02:43:36.702Z,0.00
2023-02-09T02:44:21.610Z,0.00
2023-02-09T02:45:06.658Z,0.00
2023-02-09T02:45:52.050Z,0.00
2023-02-09T02:46:37.222Z,0.00
2023-02-09T02:47:21.695Z,0.00
2023-02-09T02:48:06.744Z,0.00
2023-02-09T02:48:51.899Z,0.00
2023-02-09T02:49:36.965Z,0.00
2023-02-09T02:50:22.590Z,0.00
2023-02-09T02:51:07.018Z,0.00
2023-02-09T02:51:52.077Z,0.00
2023-02-09T02:52:35.732Z,0.00
2023-02-09T02:53:22.248Z,0.00
2023-02-09T02:54:07.362Z,0.00
2023-02-09T02:54:51.946Z,0.00
2023-02-09T02:55:37.353Z,0.00
2023-02-09T02:56:21.208Z,0.00
2023-02-09T02:57:03.401Z,0.00
2023-02-09T02:57:50.750Z,0.00
2023-02-09T02:58:37.291Z,0.00
2023-02-09T02:59:22.803Z,0.00
2023-02-09T03:00:07.482Z,0.00
2023-02-09T03:00:52.399Z,0.00
2023-02-09T03:01:37.670Z,0.00
2023-02-09T03:02:22.853Z,0.00
2023-02-09T03:03:07.547Z,0.00
2023-02-09T03:03:53.173Z,0.00
2023-02-09T03:04:37.665Z,0.00
2023-02-09T03:05:23.666Z,0.00
2023-02-09T03:06:07.864Z,0.00
2023-02-09T03:06:53.404Z,0.00
2023-02-09T03:07:38.474Z,0.00
2023-02-09T03:08:23.643Z,0.00
2023-02-09T03:09:08.230Z,0.00
2023-02-09T03:09:53.633Z,0.00
2023-02-09T03:10:38.567Z,0.00
2023-02-09T03:11:23.848Z,0.00
2023-02-09T03:12:08.332Z,0.00
2023-02-09T03:12:53.405Z,0.00
2023-02-09T03:13:38.851Z,0.00
2023-02-09T03:14:23.595Z,0.00
2023-02-09T03:15:09.830Z,0.00
2023-02-09T03:15:53.777Z,0.00
2023-02-09T03:16:39.123Z,0.00
2023-02-09T03:17:23.647Z,0.00
2023-02-09T03:18:08.732Z,0.00
2023-02-09T03:18:53.842Z,0.00
2023-02-09T03:19:39.476Z,0.00
2023-02-09T03:20:23.750Z,0.00
2023-02-09T03:21:08.760Z,0.00
2023-02-09T03:21:54.123Z,0.00
2023-02-09T03:22:38.728Z,0.00
2023-02-09T03:23:24.617Z,0.00
2023-02-09T03:24:09.012Z,0.00
2023-02-09T03:24:53.962Z,0.00
2023-02-09T03:25:39.625Z,0.00
2023-02-09T03:26:22.789Z,0.00
2023-02-09T03:27:05.867Z,0.00
2023-02-09T03:27:48.542Z,7.99
2023-02-09T03:28:36.661Z,7.99
2023-02-09T03:29:22.258Z,7.99
2023-02-09T03:30:06.158Z,7.99
2023-02-09T03:30:51.532Z,7.99
2023-02-09T03:31:33.616Z,7.99
2023-02-09T03:32:19.203Z,7.99
2023-02-09T03:33:03.873Z,7.99
2023-02-09T03:33:49.103Z,7.99
2023-02-09T03:34:33.745Z,7.99
2023-02-09T03:35:20.191Z,7.99
2023-02-09T03:36:05.756Z,7.99
2023-02-09T03:36:50.843Z,7.99
2023-02-09T03:37:34.771Z,7.99
2023-02-09T03:38:19.872Z,7.99
2023-02-09T03:39:05.195Z,7.99
2023-02-09T03:39:52.821Z,7.99
2023-02-09T03:40:35.195Z,7.99
2023-02-09T03:41:21.906Z,7.99
2023-02-09T03:42:07.369Z,7.99
2023-02-09T03:42:50.395Z,7.99
2023-02-09T03:43:35.421Z,7.99
2023-02-09T03:44:20.065Z,7.99
2023-02-09T03:45:06.156Z,7.99
2023-02-09T03:45:51.334Z,7.99
2023-02-09T03:46:36.147Z,7.99
2023-02-09T03:47:22.941Z,7.99
2023-02-09T03:48:06.072Z,7.99
2023-02-09T03:48:52.408Z,7.99
2023-02-09T03:49:35.652Z,7.99
2023-02-09T03:50:21.657Z,7.99
2023-02-09T03:51:07.961Z,7.99
2023-02-09T03:51:52.962Z,7.99
2023-02-09T03:52:36.281Z,7.99
2023-02-09T03:53:21.605Z,7.99
2023-02-09T03:54:07.557Z,7.99
2023-02-09T03:54:51.546Z,7.99
2023-02-09T03:55:37.422Z,7.99
2023-02-09T03:56:21.712Z,7.99
2023-02-09T03:57:07.367Z,7.99
2023-02-09T03:57:51.595Z,7.99
2023-02-09T03:58:37.820Z,7.99
2023-02-09T03:59:22.380Z,7.99
2023-02-09T04:00:09.855Z,7.99
2023-02-09T04:00:53.117Z,7.99
2023-02-09T04:01:36.941Z,7.99
2023-02-09T04:02:23.711Z,7.99
2023-02-09T04:03:09.046Z,7.99
2023-02-09T04:03:52.769Z,7.99
2023-02-09T04:04:38.853Z,7.99
2023-02-09T04:05:22.566Z,7.99
2023-02-09T04:06:08.015Z,7.99
2023-02-09T04:06:52.358Z,7.99
2023-02-09T04:07:38.168Z,7.99
2023-02-09T04:08:21.715Z,7.99
2023-02-09T04:09:08.011Z,7.99
2023-02-09T04:09:52.221Z,7.99
2023-02-09T04:10:39.411Z,7.99
2023-02-09T04:11:24.104Z,7.99
2023-02-09T04:12:09.159Z,7.99
2023-02-09T04:12:54.215Z,7.99
2023-02-09T04:13:38.001Z,7.99
2023-02-09T04:14:24.094Z,7.99
2023-02-09T04:15:07.950Z,7.99
2023-02-09T04:15:54.743Z,7.99
2023-02-09T04:16:39.455Z,7.99
2023-02-09T04:17:23.335Z,7.99
2023-02-09T04:18:09.973Z,7.99
2023-02-09T04:18:52.839Z,7.99
2023-02-09T04:19:41.003Z,7.99
2023-02-09T04:20:24.125Z,7.99
2023-02-09T04:21:07.948Z,7.99
2023-02-09T04:21:54.240Z,7.99
2023-02-09T04:22:41.253Z,7.99
2023-02-09T04:23:25.399Z,7.99
2023-02-09T04:24:10.207Z,7.99
2023-02-09T04:24:53.727Z,7.99
2023-02-09T04:25:41.221Z,7.99
2023-02-09T04:26:24.307Z,7.99
2023-02-09T04:27:08.825Z,7.99
2023-02-09T04:27:55.999Z,7.99
2023-02-09T04:28:39.336Z,7.99
2023-02-09T04:29:23.520Z,7.99
2023-02-09T04:30:08.613Z,7.99
2023-02-09T04:30:54.134Z,7.99
2023-02-09T04:31:39.876Z,7.99
2023-02-09T04:32:24.508Z,7.99
2023-02-09T04:33:08.073Z,7.99
2023-02-09T04:33:56.090Z,7.99
2023-02-09T04:34:39.435Z,7.99
2023-02-09T04:35:25.176Z,7.99
2023-02-09T04:36:10.853Z,7.99
2023-02-09T04:36:56.266Z,7.99
2023-02-09T04:37:42.878Z,7.99
2023-02-09T04:38:26.428Z,7.99
2023-02-09T04:39:12.674Z,7.99
2023-02-09T04:39:56.784Z,7.99
2023-02-09T04:40:41.058Z,7.99
2023-02-09T04:41:26.397Z,7.99
2023-02-09T04:42:11.363Z,7.99
2023-02-09T04:42:55.998Z,7.99
2023-02-09T04:43:40.662Z,7.99
2023-02-09T04:44:25.024Z,7.99
2023-02-09T04:45:13.838Z,7.99
2023-02-09T04:45:55.416Z,7.99
2023-02-09T04:46:45.623Z,11.63
2023-02-09T04:47:25.720Z,11.63
2023-02-09T04:48:12.365Z,11.63
2023-02-09T04:48:56.569Z,11.63
2023-02-09T04:49:41.740Z,11.63
2023-02-09T04:50:26.493Z,11.63
2023-02-09T04:51:10.639Z,11.63
2023-02-09T04:51:56.403Z,11.63
2023-02-09T04:52:43.232Z,11.63
2023-02-09T04:53:27.137Z,11.63
2023-02-09T04:54:11.284Z,11.63
2023-02-09T04:54:56.055Z,11.63
2023-02-09T04:55:40.656Z,11.63
2023-02-09T04:56:27.192Z,11.63
2023-02-09T04:57:09.934Z,11.63
2023-02-09T04:57:56.490Z,11.63
2023-02-09T04:58:41.849Z,11.63
2023-02-09T04:59:26.650Z,11.63
2023-02-09T05:00:10.663Z,11.63
2023-02-09T05:00:58.013Z,11.63
2023-02-09T05:01:41.355Z,11.63
2023-02-09T05:02:26.890Z,11.63
2023-02-09T05:03:11.273Z,11.63
2023-02-09T05:03:56.297Z,11.63
2023-02-09T05:04:41.573Z,11.63
2023-02-09T05:05:28.548Z,11.63
2023-02-09T05:06:11.178Z,11.63
2023-02-09T05:06:55.758Z,11.63
2023-02-09T05:07:40.961Z,11.63
2023-02-09T05:08:25.747Z,11.63
2023-02-09T05:09:10.821Z,11.63
2023-02-09T05:09:55.768Z,11.63
2023-02-09T05:10:40.823Z,11.63
2023-02-09T05:11:26.023Z,11.63
2023-02-09T05:12:11.270Z,11.63
2023-02-09T05:12:55.986Z,11.63
2023-02-09T05:13:40.967Z,11.63
2023-02-09T05:14:26.142Z,11.63
2023-02-09T05:15:11.755Z,11.63
2023-02-09T05:15:56.206Z,11.63
2023-02-09T05:16:41.198Z,11.63
2023-02-09T05:17:26.278Z,11.63
2023-02-09T05:18:11.611Z,11.63
2023-02-09T05:18:56.650Z,11.63
2023-02-09T05:19:41.867Z,11.63
2023-02-09T05:20:26.984Z,11.63
2023-02-09T05:21:11.785Z,11.63
2023-02-09T05:21:57.009Z,11.63
2023-02-09T05:22:41.557Z,11.63
2023-02-09T05:23:26.921Z,11.63
2023-02-09T05:24:12.282Z,11.63
2023-02-09T05:24:57.218Z,11.63
2023-02-09T05:25:41.877Z,11.63
2023-02-09T05:26:27.448Z,11.63
2023-02-09T05:27:12.196Z,11.63
2023-02-09T05:27:56.930Z,11.63
2023-02-09T05:28:42.343Z,11.63
2023-02-09T05:29:27.410Z,11.63
2023-02-09T05:30:12.281Z,11.63
2023-02-09T05:30:57.868Z,11.63
2023-02-09T05:31:43.007Z,11.63
2023-02-09T05:32:27.403Z,11.63
2023-02-09T05:33:12.889Z,11.63
2023-02-09T05:33:57.592Z,11.63
2023-02-09T05:34:42.671Z,11.63
2023-02-09T05:35:27.826Z,11.63
2023-02-09T05:36:13.182Z,11.63
2023-02-09T05:36:57.888Z,11.63
2023-02-09T05:37:42.926Z,11.63
2023-02-09T10:34:19.139Z,0.00
2023-02-09T10:35:03.016Z,51.83
2023-02-09T10:35:47.281Z,51.83
2023-02-09T10:36:33.866Z,51.83
2023-02-09T10:37:22.246Z,51.83
2023-02-09T10:38:05.333Z,51.83
2023-02-09T10:38:50.593Z,51.83
2023-02-09T10:39:33.762Z,51.83
2023-02-09T10:40:20.717Z,51.83
2023-02-09T10:41:05.354Z,51.83
2023-02-09T10:41:52.986Z,51.83
2023-02-09T10:42:37.120Z,51.83
2023-02-09T10:43:19.808Z,51.83
2023-02-09T10:44:04.464Z,51.83
2023-02-09T10:44:51.858Z,51.83
2023-02-09T10:45:38.937Z,51.83
2023-02-09T10:46:22.857Z,51.83
2023-02-09T10:47:06.637Z,51.83
2023-02-09T10:47:54.490Z,51.83
2023-02-09T10:48:38.680Z,51.83
2023-02-09T10:49:20.696Z,51.83
2023-02-09T10:50:03.494Z,51.83
2023-02-09T10:50:48.605Z,51.83
2023-02-09T10:51:36.636Z,51.83
2023-02-09T10:52:24.084Z,51.83
2023-02-09T10:53:09.549Z,51.83
2023-02-09T10:53:54.180Z,51.83
2023-02-09T10:54:39.389Z,51.83
2023-02-09T10:55:23.176Z,51.83
2023-02-09T10:56:04.282Z,51.83
2023-02-09T10:56:52.990Z,51.83
2023-02-09T10:57:35.700Z,51.83
2023-02-09T10:58:19.333Z,51.83
2023-02-09T10:59:08.547Z,51.83
2023-02-09T10:59:48.999Z,51.83
2023-02-09T11:00:34.105Z,51.83
2023-02-09T11:01:20.219Z,51.83
2023-02-09T11:02:04.153Z,51.83
2023-02-09T11:02:49.504Z,51.83
2023-02-09T11:03:34.353Z,51.83
2023-02-09T11:04:19.476Z,51.83
2023-02-09T11:05:04.770Z,51.83
2023-02-09T11:05:49.901Z,51.83
2023-02-09T11:06:34.610Z,51.83
2023-02-09T11:07:19.539Z,51.83
2023-02-09T11:08:04.836Z,51.83
2023-02-09T11:08:50.132Z,51.83
2023-02-09T11:09:34.806Z,51.83
2023-02-09T11:10:19.974Z,51.83
2023-02-09T11:11:04.892Z,51.83
2023-02-09T11:11:49.820Z,51.83
2023-02-09T11:12:34.657Z,51.83
2023-02-09T11:13:20.157Z,51.83
2023-02-09T11:14:05.490Z,51.83
2023-02-09T11:14:49.908Z,51.83
2023-02-09T11:15:35.999Z,51.83
2023-02-09T11:16:20.359Z,51.83
2023-02-09T11:17:05.293Z,51.83
2023-02-09T11:17:54.466Z,51.83
2023-02-09T11:18:41.314Z,51.83
2023-02-09T11:19:23.681Z,51.83
2023-02-09T11:20:11.129Z,51.83
2023-02-09T11:20:56.007Z,51.83
2023-02-09T11:21:41.100Z,51.83
2023-02-09T11:22:28.910Z,51.83
2023-02-09T11:23:11.344Z,51.83
2023-02-09T11:23:56.541Z,51.83
2023-02-09T11:24:41.420Z,51.83
2023-02-09T11:25:26.508Z,51.83
2023-02-09T11:26:11.283Z,51.83
2023-02-09T11:26:56.485Z,51.83
2023-02-09T11:27:41.076Z,51.83
2023-02-09T11:28:26.416Z,51.83
2023-02-09T11:29:11.832Z,51.83
2023-02-09T11:29:56.404Z,51.83
2023-02-09T11:30:41.982Z,51.83
2023-02-09T11:31:27.051Z,51.83
2023-02-09T11:32:11.454Z,51.83
2023-02-09T11:32:57.025Z,51.83
2023-02-09T11:33:41.781Z,51.83
2023-02-09T11:34:26.844Z,51.83
2023-02-09T11:35:13.691Z,51.83
2023-02-09T11:35:56.938Z,51.83
2023-02-09T11:36:41.752Z,51.83
2023-02-09T11:37:27.427Z,51.83
2023-02-09T11:38:12.666Z,51.83
2023-02-09T11:38:56.968Z,51.83
2023-02-09T11:39:42.064Z,51.83
2023-02-09T11:40:27.272Z,51.83
2023-02-09T11:41:12.648Z,51.83
2023-02-09T11:41:57.216Z,51.83
2023-02-09T11:42:43.261Z,51.83
2023-02-09T11:43:27.547Z,51.83
2023-02-09T11:44:12.809Z,51.83
2023-02-09T11:53:03.817Z,74.66
2023-02-09T11:53:48.783Z,74.66
2023-02-09T11:54:34.945Z,74.66
2023-02-09T11:55:21.495Z,74.66
2023-02-09T11:55:57.152Z,85.25
2023-02-09T12:06:37.043Z,65.97
2023-02-09T12:07:21.977Z,65.97
2023-02-09T12:08:09.598Z,65.97
2023-02-09T12:08:53.366Z,65.97
2023-02-09T12:09:38.922Z,65.97
2023-02-09T12:10:23.997Z,65.97
2023-02-09T12:11:07.887Z,65.97
2023-02-09T12:11:52.893Z,65.97
2023-02-09T12:12:40.663Z,65.97
2023-02-09T12:13:24.162Z,65.97
2023-02-09T12:14:08.418Z,65.97
2023-02-09T12:14:54.666Z,65.97
2023-02-09T12:15:44.020Z,65.97
2023-02-09T12:16:29.009Z,65.97
2023-02-09T12:17:13.946Z,65.97
2023-02-09T12:17:58.789Z,65.97
2023-02-09T12:18:43.511Z,65.97
2023-02-09T12:19:28.873Z,65.97
2023-02-09T12:20:13.795Z,65.97
2023-02-09T12:20:58.824Z,65.97
2023-02-09T12:21:44.356Z,65.97
2023-02-09T12:22:29.080Z,65.97
2023-02-09T12:23:14.035Z,65.97
2023-02-09T12:23:58.764Z,65.97
2023-02-09T12:24:44.172Z,65.97
2023-02-09T12:25:29.369Z,65.97
2023-02-09T12:26:14.050Z,65.97
2023-02-09T12:26:59.471Z,65.97
2023-02-09T12:27:44.296Z,65.97
2023-02-09T12:28:29.175Z,65.97
2023-02-09T12:29:14.185Z,65.97
2023-02-09T12:29:59.506Z,65.97
2023-02-09T12:30:44.850Z,65.97
2023-02-09T12:31:29.275Z,65.97
2023-02-09T12:32:15.008Z,65.97
2023-02-09T12:32:59.823Z,65.97
2023-02-09T12:33:44.670Z,65.97
2023-02-09T12:34:29.518Z,65.97
2023-02-09T12:35:14.854Z,65.97
2023-02-09T12:35:59.896Z,65.97
2023-02-09T12:36:44.946Z,65.97
2023-02-09T12:37:30.666Z,65.97
2023-02-09T12:38:15.298Z,65.97
2023-02-09T12:39:05.731Z,65.97
2023-02-09T12:39:45.258Z,65.97
2023-02-09T12:40:29.934Z,65.97
2023-02-09T12:41:15.371Z,65.97
2023-02-09T12:42:00.160Z,65.97
2023-02-09T12:42:45.416Z,65.97
2023-02-09T12:43:30.554Z,65.97
2023-02-09T12:44:15.605Z,65.97
2023-02-09T12:45:00.897Z,65.97
2023-02-09T12:45:45.791Z,65.97
2023-02-09T12:46:31.109Z,65.97
2023-02-09T12:47:13.681Z,65.97
2023-02-09T12:47:59.245Z,65.97
2023-02-09T12:48:45.944Z,65.97
2023-02-09T12:49:28.594Z,65.97
2023-02-09T12:50:11.469Z,65.97
2023-02-09T12:51:00.960Z,65.97
2023-02-09T12:51:44.069Z,65.97
2023-02-09T12:52:31.435Z,65.97
2023-02-09T12:53:18.531Z,65.97
2023-02-09T12:54:03.951Z,65.97
2023-02-09T12:54:46.913Z,1.86
2023-02-09T12:55:33.960Z,1.86
2023-02-09T12:56:19.249Z,1.86
2023-02-09T12:57:01.395Z,2.16
2023-02-09T12:57:48.653Z,2.16
2023-02-09T12:58:33.563Z,2.16
2023-02-09T12:59:17.284Z,2.16
2023-02-09T13:00:01.985Z,2.16
2023-02-09T13:00:47.015Z,2.16
2023-02-09T13:01:32.249Z,2.16
2023-02-09T13:02:17.342Z,2.16
2023-02-09T13:03:02.288Z,2.16
2023-02-09T13:03:47.105Z,2.16
2023-02-09T13:04:32.047Z,2.16
2023-02-09T13:05:17.585Z,2.16
2023-02-09T13:06:02.494Z,2.16
2023-02-09T13:06:47.554Z,2.16
2023-02-09T13:07:32.190Z,2.16
2023-02-09T13:08:17.316Z,2.16
2023-02-09T13:09:02.125Z,2.16
2023-02-09T13:09:47.403Z,2.16
2023-02-09T13:10:32.925Z,2.16
2023-02-09T13:11:17.892Z,2.16
2023-02-09T13:12:02.734Z,2.16
2023-02-09T13:12:47.993Z,2.16
2023-02-09T13:13:32.811Z,2.16
2023-02-09T13:14:18.020Z,2.16
2023-02-09T13:15:02.903Z,2.16
2023-02-09T13:15:48.152Z,2.16
2023-02-09T13:16:33.054Z,2.16
2023-02-09T13:17:18.674Z,2.16
2023-02-09T13:18:02.881Z,2.16
2023-02-09T13:18:47.639Z,2.16
2023-02-09T13:19:46.019Z,2.16
2023-02-09T13:20:18.466Z,2.16
2023-02-09T13:21:03.243Z,2.16
2023-02-09T13:21:47.735Z,2.16
2023-02-09T13:22:33.162Z,2.16
2023-02-09T13:23:19.014Z,2.16
2023-02-09T13:24:03.425Z,2.16
2023-02-09T13:24:48.187Z,2.16
2023-02-09T13:25:33.501Z,2.16
2023-02-09T13:26:18.813Z,2.16
2023-02-09T13:27:03.971Z,2.16
2023-02-09T13:27:48.554Z,2.16
2023-02-09T13:28:33.618Z,2.16
2023-02-09T13:29:21.333Z,2.16
2023-02-09T13:30:04.221Z,2.16
2023-02-09T13:30:48.752Z,2.16
2023-02-09T13:31:34.048Z,2.16
2023-02-09T13:32:18.944Z,2.16
2023-02-09T13:33:04.007Z,2.16
2023-02-09T13:33:48.872Z,2.16
2023-02-09T13:34:33.949Z,2.16
2023-02-09T13:35:20.007Z,2.16
2023-02-09T13:36:08.907Z,2.16
2023-02-09T13:36:49.286Z,2.16
2023-02-09T13:37:34.274Z,2.16
2023-02-09T13:38:19.257Z,2.16
2023-02-09T13:39:04.428Z,2.16
2023-02-09T13:39:49.366Z,2.16
2023-02-09T13:40:34.767Z,2.16
2023-02-09T13:41:19.931Z,2.16
2023-02-09T13:42:04.663Z,2.16
2023-02-09T13:42:49.727Z,2.16
2023-02-09T13:43:34.700Z,2.16
2023-02-09T13:44:19.798Z,2.16
2023-02-09T13:45:04.860Z,2.16
2023-02-09T13:45:49.657Z,2.16
2023-02-09T13:46:34.626Z,2.16
2023-02-09T13:47:20.189Z,2.16
2023-02-09T13:48:05.480Z,2.16
2023-02-09T13:48:49.849Z,2.16
2023-02-09T13:49:35.353Z,2.16
2023-02-09T13:50:20.600Z,2.16
2023-02-09T13:51:03.408Z,2.16
2023-02-09T13:51:50.156Z,2.16
2023-02-09T13:52:38.733Z,2.16
2023-02-09T13:53:21.489Z,2.16
2023-02-09T13:54:05.492Z,2.16
2023-02-09T13:54:50.963Z,2.16
2023-02-09T13:55:35.333Z,2.16
2023-02-09T13:56:20.705Z,2.16
2023-02-09T13:57:05.882Z,2.16
2023-02-09T13:57:50.476Z,2.16
2023-02-09T13:58:35.846Z,2.16
2023-02-09T13:59:18.724Z,2.16
2023-02-09T14:00:05.433Z,2.16
2023-02-09T14:00:51.400Z,2.16
2023-02-09T14:01:32.554Z,2.16
2023-02-09T14:02:15.964Z,2.16
2023-02-09T14:03:00.723Z,2.16
2023-02-09T14:03:57.494Z,2.16
2023-02-09T14:04:31.672Z,2.16
2023-02-09T14:05:16.478Z,2.16
2023-02-09T14:06:01.641Z,2.16
2023-02-09T14:06:46.926Z,2.16
2023-02-09T14:07:31.821Z,2.16
2023-02-09T14:08:16.031Z,2.16
2023-02-09T14:09:00.770Z,2.16
2023-02-09T14:09:45.621Z,2.16
2023-02-09T14:10:31.083Z,2.16
2023-02-09T14:11:15.973Z,2.16
2023-02-09T14:12:01.324Z,2.16
2023-02-09T14:12:46.077Z,2.16
2023-02-09T14:13:31.174Z,2.16
2023-02-09T14:14:15.753Z,2.16
2023-02-09T14:15:01.438Z,2.16
2023-02-09T14:15:46.203Z,2.16
2023-02-09T14:16:32.854Z,2.16
2023-02-09T14:17:24.706Z,2.16
2023-02-09T14:18:01.243Z,2.16
2023-02-09T14:18:46.584Z,2.16
2023-02-09T14:19:31.779Z,2.16
2023-02-09T14:20:17.012Z,2.16
2023-02-09T14:21:01.643Z,2.16
2023-02-09T14:21:46.719Z,2.16
2023-02-09T14:22:32.096Z,2.16
2023-02-09T14:23:16.995Z,2.16
2023-02-09T14:24:02.874Z,2.16
2023-02-09T14:24:47.943Z,2.16
2023-02-09T14:25:33.132Z,2.16
2023-02-09T14:26:20.075Z,2.16
2023-02-09T14:27:01.918Z,2.16
2023-02-09T14:27:47.312Z,2.16
2023-02-09T14:28:32.369Z,2.16
2023-02-09T14:29:18.169Z,2.16
2023-02-09T14:30:02.372Z,2.16
2023-02-09T14:30:47.677Z,2.16
2023-02-09T14:31:32.274Z,2.16
2023-02-09T14:32:27.347Z,2.16
2023-02-09T14:33:02.253Z,2.16
2023-02-09T14:33:47.827Z,2.16
2023-02-09T14:34:32.411Z,2.16
2023-02-09T14:35:22.189Z,2.16
2023-02-09T14:36:08.062Z,2.16
2023-02-09T14:36:50.869Z,2.16
2023-02-09T14:37:37.986Z,2.16
2023-02-09T14:38:23.078Z,2.16
2023-02-09T14:39:08.462Z,2.16
2023-02-09T14:39:53.569Z,2.16
2023-02-09T14:40:38.543Z,2.16
2023-02-09T14:41:24.152Z,2.16
2023-02-09T14:42:08.901Z,2.16
2023-02-09T14:42:53.884Z,2.16
2023-02-09T14:43:38.989Z,2.16
2023-02-09T14:44:23.917Z,2.16
2023-02-09T14:45:09.529Z,2.16
2023-02-09T14:45:53.937Z,2.16
2023-02-09T14:46:38.846Z,2.16
2023-02-09T14:47:24.176Z,2.16
2023-02-09T14:48:08.998Z,2.16
2023-02-09T14:48:54.093Z,2.16
2023-02-09T14:49:39.284Z,2.16
2023-02-09T14:50:24.372Z,2.16
2023-02-09T14:51:09.042Z,2.16
2023-02-09T14:51:48.397Z,2.16
2023-02-09T14:52:33.502Z,2.16
2023-02-09T14:53:19.000Z,2.16
2023-02-09T14:54:03.852Z,2.16
2023-02-09T14:54:49.158Z,2.16
2023-02-09T14:55:33.690Z,2.16
2023-02-09T14:56:18.951Z,2.16
2023-02-09T14:57:03.844Z,2.16
2023-02-09T14:57:49.025Z,2.16
2023-02-09T14:58:33.918Z,2.16
2023-02-09T14:59:19.435Z,2.16
2023-02-09T15:00:05.046Z,2.16
2023-02-09T15:00:48.784Z,2.16
2023-02-09T15:01:34.435Z,2.16
2023-02-09T15:02:19.530Z,2.16
2023-02-09T15:03:04.354Z,2.16
2023-02-09T15:03:49.518Z,2.16
2023-02-09T15:04:34.297Z,2.16
2023-02-09T15:05:20.056Z,2.16
2023-02-09T15:06:04.883Z,2.16
2023-02-09T15:06:49.456Z,2.16
2023-02-09T15:07:34.795Z,2.16
2023-02-09T15:08:23.853Z,2.16
2023-02-09T15:09:04.745Z,2.16
2023-02-09T15:09:53.618Z,2.16
2023-02-09T15:10:34.834Z,2.16
2023-02-09T15:11:24.295Z,2.16